Ames, Nebraska
Current Conditions -  °F | °C
As of 3:55 AM on Wednesday 26 Nov 2014 (Local Time) from KFET Reporting Station
Overcast Overcast  
Wind Chill: 28°   Ceiling: 2700
Heat Index: 37°   Visibility: 10mi
Dew Point: 34°   Wind: 14mph
Humidity: 91%   Direction: 280°W
Pressure: 29.86"   Gusts: NA
Location:  41.45°N, 96.63°W
Report Text: KFET 260955Z AUTO 28012KT 10SM BKN027 BKN034 OVC065 03/01 A2986 RMK AO2 T00260013
Loading
Personal Weather Stations






























Interactive Weather Map New forecast layout! Learn more

10-Day Weather Forecast

Advertisements
Track Severe Weather on mobile